Inspiration — C6FM5 — position and weather

sailwx.info

Track history (hours):
 
Tides and Currents Weather Stations Pressure Air Temp Water Temp Dewpoint Dewpoint Depression Visibility Wind Speed Wind Dir Waves Ship Positions

Inspiration

Operator: Carnival Cruise Lines

Last reported at 2018-Dec-13 12:29 UTC. Time now 2018-Dec-13 12:49 UTC.
Position N 31°26' W 117°47'.

Type: Ship. MMSI: 309484000.

Date/timePositionNaut miles runAvg speedWind from/ knotsBaromVisibWave heightAir tempDewpointWater temp
2018-Dec-13 12:29N 31°26' W 117°47'4 7.6
2018-Dec-13 12:00N 31°29' W 117°47'4 8.4
2018-Dec-13 11:30N 31°33' W 117°50'4 8.4
2018-Dec-13 11:00N 31°36' W 117°53'4 8.0
2018-Dec-13 10:30N 31°40' W 117°55'4 7.7
2018-Dec-13 10:00N 31°44' W 117°56'4 8.0
2018-Dec-13 09:31N 31°45' W 117°51'4 8.4
2018-Dec-13 09:01N 31°45' W 117°46'4 8.3
2018-Dec-13 08:30N 31°46' W 117°42'4 8.6
2018-Dec-13 08:01N 31°46' W 117°36'5 9.2
2018-Dec-13 07:30N 31°47' W 117°31'5 9.0
2018-Dec-13 07:00N 31°47' W 117°26'5 9.2
2018-Dec-13 06:30N 31°48' W 117°20'6 9.1
2018-Dec-13 05:48N 31°48' W 117°13'3 9.2
2018-Dec-13 05:28N 31°49' W 117°09'4 9.5
2018-Dec-13 05:00N 31°49' W 117°04'5 9.4
2018-Dec-13 04:30N 31°49' W 116°59'21 1.2
2018-Dec-12 10:53N 32°03' W 117°17'4 9.0
2018-Dec-12 10:26N 32°05' W 117°21'4 8.9
2018-Dec-12 10:00N 32°07' W 117°26'6 9.4
2018-Dec-12 09:23N 32°09' W 117°32'3 8.9
2018-Dec-12 09:00N 32°11' W 117°34'5 9.3
2018-Dec-12 08:30N 32°16' W 117°37'5 9.3
2018-Dec-12 08:00N 32°20' W 117°39'5 9.6
2018-Dec-12 07:30N 32°24' W 117°42'5 9.9
2018-Dec-12 07:00N 32°28' W 117°44'510.0
2018-Dec-12 06:30N 32°33' W 117°47'5 9.6
2018-Dec-12 06:00N 32°37' W 117°50'5 9.4
2018-Dec-12 05:30N 32°41' W 117°52'5 9.6
2018-Dec-12 05:01N 32°45' W 117°55'4209.6
2018-Dec-12 05:00N 32°42' W 117°54'817.0 330 / 51021.210.8 15.013.317.0
2018-Dec-12 04:30N 32°50' W 117°57'5 9.7
2018-Dec-12 04:00N 32°54' W 118°00'5 9.6
2018-Dec-12 03:30N 32°58' W 118°03'510.4
2018-Dec-12 03:00N 33°03' W 118°05'510.4
2018-Dec-12 02:30N 33°08' W 118°08'510.2
2018-Dec-12 02:00N 33°12' W 118°11'510.7
2018-Dec-12 01:30N 33°17' W 118°13'510.8
2018-Dec-12 01:00N 33°21' W 118°18'1 1.1
2018-Dec-12 00:28N 33°21' W 118°19'0 0.0
2018-Dec-11 23:52N 33°21' W 118°19'0 0.0
2018-Dec-11 23:28N 33°21' W 118°19'0 0.0
2018-Dec-11 22:58N 33°21' W 118°19'0 0.0
2018-Dec-11 22:25N 33°21' W 118°19'0 0.1
2018-Dec-11 21:58N 33°21' W 118°19'0 0.0
2018-Dec-11 21:25N 33°21' W 118°19'0 0.0
2018-Dec-11 20:58N 33°21' W 118°19'0 0.0
2018-Dec-11 20:28N 33°21' W 118°19'0 0.0
2018-Dec-11 19:58N 33°21' W 118°19'0 0.0
2018-Dec-11 19:25N 33°21' W 118°19'0 0.0
2018-Dec-11 18:58N 33°21' W 118°19'0 0.0
2018-Dec-11 18:28N 33°21' W 118°19'0 0.1
2018-Dec-11 17:58N 33°21' W 118°19'0 0.0
2018-Dec-11 17:28N 33°21' W 118°19'0 0.1
2018-Dec-11 16:58N 33°21' W 118°19'0 0.1
2018-Dec-11 16:28N 33°21' W 118°19'0 0.1
2018-Dec-11 16:00N 33°21' W 118°19'0 0.0
2018-Dec-11 15:30N 33°21' W 118°19'0 0.2
2018-Dec-11 15:00N 33°21' W 118°19'3 5.9
2018-Dec-11 14:31N 33°19' W 118°17'4 8.5
2018-Dec-11 14:00N 33°15' W 118°15'4 7.9
2018-Dec-11 13:30N 33°11' W 118°14'4 8.2
2018-Dec-11 13:01N 33°07' W 118°13'4 8.3
2018-Dec-11 12:31N 33°03' W 118°11'4 8.5
2018-Dec-11 12:01N 33°00' W 118°07'4 8.2
2018-Dec-11 11:30N 32°57' W 118°04'4 8.3
2018-Dec-11 11:00N 32°53' W 118°03'4 8.5
2018-Dec-11 10:30N 32°49' W 118°01'4 8.2
2018-Dec-11 10:00N 32°45' W 117°59'4 7.3
2018-Dec-11 09:30N 32°45' W 117°55'4 7.6
2018-Dec-11 09:00N 32°49' W 117°54'4 7.5
2018-Dec-11 08:30N 32°53' W 117°54'4 7.4
2018-Dec-11 08:00N 32°56' W 117°56'4 7.3
2018-Dec-11 07:30N 32°60' W 117°57'4 7.3
2018-Dec-11 07:00N 33°03' W 117°59'4 7.5
2018-Dec-11 06:30N 33°07' W 118°00'4 8.8
2018-Dec-11 06:00N 33°11' W 118°02'510.7
2018-Dec-11 05:30N 33°16' W 118°05'611.0
2018-Dec-11 05:00N 33°21' W 118°06'611.0
2018-Dec-11 04:30N 33°26' W 118°09'511.0
2018-Dec-11 04:00N 33°31' W 118°11'510.8
2018-Dec-11 03:30N 33°37' W 118°13'510.8
2018-Dec-11 03:00N 33°42' W 118°11'3 6.5
2018-Dec-11 02:30N 33°45' W 118°11'0 0.0
2018-Dec-11 01:59N 33°45' W 118°11'0 0.0
2018-Dec-11 01:26N 33°45' W 118°11'0 0.0
2018-Dec-11 00:59N 33°45' W 118°11'0 0.0
2018-Dec-11 00:29N 33°45' W 118°11'0 0.0
2018-Dec-10 23:59N 33°45' W 118°11'0 0.0
2018-Dec-10 23:29N 33°45' W 118°11'0 0.0
2018-Dec-10 22:59N 33°45' W 118°11'0 0.0
2018-Dec-10 22:26N 33°45' W 118°11'0 0.0
2018-Dec-10 21:59N 33°45' W 118°11'0 0.0
2018-Dec-10 21:26N 33°45' W 118°11'0 0.0
2018-Dec-10 20:59N 33°45' W 118°11'0 0.0
2018-Dec-10 20:29N 33°45' W 118°11'0 0.0
2018-Dec-10 19:59N 33°45' W 118°11'0 0.0
2018-Dec-10 19:29N 33°45' W 118°11'0 0.0
2018-Dec-10 18:59N 33°45' W 118°11'0 0.0
2018-Dec-10 18:29N 33°45' W 118°11'0 0.0
2018-Dec-10 17:59N 33°45' W 118°11'0 0.0
2018-Dec-10 17:29N 33°45' W 118°11'0 0.0
2018-Dec-10 16:59N 33°45' W 118°11'0 0.0
2018-Dec-10 16:29N 33°45' W 118°11'0 0.0
2018-Dec-10 15:56N 33°45' W 118°11'0 0.0
2018-Dec-10 15:29N 33°45' W 118°11'0 0.0
2018-Dec-10 14:59N 33°45' W 118°11'0 0.0
2018-Dec-10 14:29N 33°45' W 118°11'0 0.0
2018-Dec-10 13:59N 33°45' W 118°11'0 0.3
2018-Dec-10 13:30N 33°45' W 118°11'1 1.7
2018-Dec-10 13:00N 33°44' W 118°11'4 8.4
2018-Dec-10 12:30N 33°40' W 118°11'5 9.1
2018-Dec-10 12:00N 33°36' W 118°10'5 9.3
2018-Dec-10 11:30N 33°31' W 118°08'5 9.3
2018-Dec-10 11:01N 33°27' W 118°06'510.1
2018-Dec-10 10:30N 33°22' W 118°04'816.3
2018-Dec-10 10:01N 33°14' W 118°00'816.1
2018-Dec-10 09:30N 33°07' W 117°57'816.1
2018-Dec-10 09:00N 32°59' W 117°54'815.9
2018-Dec-10 08:30N 32°52' W 117°50'815.8
2018-Dec-10 08:00N 32°44' W 117°48'816.1
2018-Dec-10 07:30N 32°37' W 117°44'816.1
2018-Dec-10 07:00N 32°29' W 117°40'816.1
2018-Dec-10 06:31N 32°22' W 117°36'815.9
2018-Dec-10 06:00N 32°15' W 117°31'815.7
2018-Dec-10 05:31N 32°10' W 117°25'915.9
2018-Dec-10 04:58N 32°05' W 117°17'715.7
2018-Dec-10 04:30N 32°01' W 117°09'19 1.1
2018-Dec-09 11:11N 31°42' W 117°11'1 7.9
2018-Dec-09 11:00N 31°41' W 117°11'9 3.6
2018-Dec-09 08:26N 31°33' W 117°17'3 7.2
2018-Dec-09 08:00N 31°36' W 117°19'7 7.4
2018-Dec-09 07:03N 31°43' W 117°21'2 7.6
2018-Dec-09 06:51N 31°44' W 117°22'3 7.6
2018-Dec-09 06:30N 31°47' W 117°23'4 7.4
2018-Dec-09 06:00N 31°50' W 117°24'3 7.0
2018-Dec-09 05:30N 31°53' W 117°22'4 7.6
2018-Dec-09 05:00N 31°53' W 117°17'4 7.2
2018-Dec-09 04:30N 31°51' W 117°14'4 7.7
2018-Dec-09 04:00N 31°47' W 117°13'6 7.6
2018-Dec-09 03:11N 31°41' W 117°11'1 7.5
2018-Dec-09 03:00N 31°40' W 117°10'5429.7
2018-Dec-09 03:00N 31°36' W 117°06'4 3.7 350 / 121022.210.8 17.013.715.0
2018-Dec-09 01:52N 31°32' W 117°07'2 6.1
2018-Dec-09 01:29N 31°32' W 117°10'4 7.6
2018-Dec-09 01:00N 31°35' W 117°12'6 7.7
2018-Dec-09 00:12N 31°41' W 117°14'15 7.0
2018-Dec-08 22:05N 31°40' W 117°31'1 8.8
2018-Dec-08 21:59N 31°40' W 117°32'4 8.8
2018-Dec-08 21:30N 31°39' W 117°37'4 7.9
2018-Dec-08 21:00N 31°38' W 117°41'6 7.7
2018-Dec-08 20:17N 31°36' W 117°47'2 7.5
2018-Dec-08 20:00N 31°36' W 117°50'4 7.4
2018-Dec-08 19:30N 31°35' W 117°54'4 7.8
2018-Dec-08 19:00N 31°35' W 117°58'4 7.3
2018-Dec-08 18:30N 31°37' W 118°02'4 7.9
2018-Dec-08 18:00N 31°40' W 118°03'4 8.1
2018-Dec-08 17:30N 31°44' W 118°04'4 7.9
2018-Dec-08 17:00N 31°48' W 118°05'4 8.0
2018-Dec-08 16:30N 31°52' W 118°06'4 7.6
2018-Dec-08 16:00N 31°56' W 118°06'5356.3
2018-Dec-08 16:00N 31°54' W 118°00'713.9 350 / 61025.210.8 17.015.415.0
2018-Dec-08 15:30N 31°60' W 118°04'4 7.8
2018-Dec-08 15:00N 32°03' W 118°03'4239.5
2018-Dec-08 15:00N 32°06' W 118°00'1 2.6 340 / 81026.310.8 17.015.416.0
2018-Dec-08 14:30N 32°07' W 118°01'4 7.7
2018-Dec-08 14:00N 32°10' W 117°59'4 7.7
2018-Dec-08 13:30N 32°14' W 117°58'4 7.7
2018-Dec-08 13:00N 32°18' W 117°56'4 7.6
2018-Dec-08 12:30N 32°21' W 117°55'4 8.0
2018-Dec-08 12:00N 32°25' W 117°53'4 8.2
2018-Dec-08 11:30N 32°29' W 117°51'4 8.3
2018-Dec-08 11:00N 32°32' W 117°49'4 8.5
2018-Dec-08 10:30N 32°36' W 117°48'4 8.2
2018-Dec-08 10:00N 32°40' W 117°49'4 8.2
2018-Dec-08 09:30N 32°44' W 117°50'4 8.3
2018-Dec-08 09:00N 32°48' W 117°52'4 8.3
2018-Dec-08 08:30N 32°52' W 117°54'4 8.3
2018-Dec-08 08:00N 32°56' W 117°56'4 8.1
2018-Dec-08 07:30N 32°59' W 117°58'4 8.1
2018-Dec-08 07:00N 33°03' W 118°00'4 8.5
2018-Dec-08 06:30N 33°07' W 118°02'510.1
2018-Dec-08 06:00N 33°12' W 118°03'510.4
2018-Dec-08 05:30N 33°17' W 118°05'510.8
2018-Dec-08 05:00N 33°22' W 118°07'510.8
2018-Dec-08 04:30N 33°27' W 118°09'510.8
2018-Dec-08 04:00N 33°32' W 118°12'510.4
2018-Dec-08 03:30N 33°37' W 118°13'510.4
2018-Dec-08 03:00N 33°42' W 118°11'3 5.7
2018-Dec-08 02:30N 33°45' W 118°11'0 0.0
2018-Dec-08 01:59N 33°45' W 118°11'0 0.0
2018-Dec-08 01:29N 33°45' W 118°11'0 0.0
2018-Dec-08 00:59N 33°45' W 118°11'0 0.0
2018-Dec-08 00:29N 33°45' W 118°11'0 0.0
2018-Dec-07 23:59N 33°45' W 118°11'0 0.0
2018-Dec-07 23:29N 33°45' W 118°11'0 0.0
2018-Dec-07 22:59N 33°45' W 118°11'0 0.0
2018-Dec-07 22:23N 33°45' W 118°11'0 0.0
2018-Dec-07 21:59N 33°45' W 118°11'0 0.0
2018-Dec-07 21:29N 33°45' W 118°11'0 0.0
2018-Dec-07 20:59N 33°45' W 118°11'0 0.0
2018-Dec-07 20:29N 33°45' W 118°11'0 0.0
2018-Dec-07 19:59N 33°45' W 118°11'0 0.0
2018-Dec-07 19:26N 33°45' W 118°11'0 0.0
2018-Dec-07 18:59N 33°45' W 118°11'0 0.0
2018-Dec-07 18:29N 33°45' W 118°11'0 0.0
2018-Dec-07 17:59N 33°45' W 118°11'0 0.0
2018-Dec-07 17:23N 33°45' W 118°11'0 0.0
2018-Dec-07 16:59N 33°45' W 118°11'0 0.0
2018-Dec-07 16:29N 33°45' W 118°11'0 0.0
2018-Dec-07 15:56N 33°45' W 118°11'0 0.0
2018-Dec-07 15:29N 33°45' W 118°11'0 0.0
2018-Dec-07 14:59N 33°45' W 118°11'0 0.0
2018-Dec-07 14:29N 33°45' W 118°11'0 0.0
2018-Dec-07 13:59N 33°45' W 118°11'0 0.1
2018-Dec-07 13:31N 33°45' W 118°11'1 1.9
2018-Dec-07 13:01N 33°44' W 118°11'510.0
2018-Dec-07 12:30N 33°39' W 118°11'4 7.6
2018-Dec-07 12:01N 33°35' W 118°10'4 7.7
2018-Dec-07 11:31N 33°32' W 118°08'4 7.6
2018-Dec-07 11:00N 33°28' W 118°06'4 7.2
2018-Dec-07 10:31N 33°25' W 118°05'4 7.2
2018-Dec-07 10:00N 33°21' W 118°03'4 7.3
2018-Dec-07 09:31N 33°18' W 118°02'3 6.6
2018-Dec-07 09:00N 33°15' W 118°01'4 7.9
2018-Dec-07 08:30N 33°11' W 117°59'4 8.2
2018-Dec-07 08:00N 33°07' W 117°57'4 8.4
2018-Dec-07 07:30N 33°03' W 117°56'4 8.2
2018-Dec-07 07:00N 32°60' W 117°54'4 8.0
2018-Dec-07 06:30N 32°56' W 117°52'4 7.7
2018-Dec-07 06:00N 32°52' W 117°50'4 7.7
2018-Dec-07 05:30N 32°49' W 117°48'4 7.9
2018-Dec-07 05:00N 32°45' W 117°46'4 8.2
2018-Dec-07 04:30N 32°42' W 117°44'4 8.6
2018-Dec-07 04:01N 32°38' W 117°41'4 7.8
2018-Dec-07 03:30N 32°34' W 117°42'8 8.0
2018-Dec-07 02:30N 32°26' W 117°40'4 8.1
2018-Dec-07 02:00N 32°22' W 117°39'5541.6
2018-Dec-07 02:00N 32°18' W 117°36'1 2.2 190 / 111013.210.8 16.016.018.0
2018-Dec-07 01:30N 32°19' W 117°37'4 8.3
2018-Dec-07 01:00N 32°15' W 117°34'4 8.4
2018-Dec-07 00:30N 32°12' W 117°31'4 7.6
2018-Dec-07 00:00N 32°09' W 117°28'4 7.0
2018-Dec-06 23:30N 32°07' W 117°25'50 5.2
2018-Dec-06 14:00N 31°24' W 117°54'1211.9 210 / 101013.2 5.4 16.014.418.0
2018-Dec-06 13:00N 31°18' W 117°42'59 5.9 190 / 201013.210.8 18.016.418.0
2018-Dec-06 03:00N 31°48' W 116°42'5 0.4 120 / 101019.3 2.2 17.015.416.0
2018-Dec-05 14:00N 31°48' W 116°48'22 9.3 090 / 121018.3 16.014.415.0
2018-Dec-05 11:36N 32°01' W 117°10'1 9.2
2018-Dec-05 11:30N 32°01' W 117°10'4 8.9
2018-Dec-05 11:00N 32°03' W 117°15'6 9.1
2018-Dec-05 10:22N 32°05' W 117°22'3 8.9
2018-Dec-05 09:58N 32°06' W 117°25'5 8.8
2018-Dec-05 09:25N 32°08' W 117°31'3 8.3
2018-Dec-05 09:00N 32°11' W 117°34'4 8.7
2018-Dec-05 08:30N 32°14' W 117°36'4 8.6
2018-Dec-05 08:00N 32°18' W 117°38'4 8.4
2018-Dec-05 07:30N 32°22' W 117°41'4 8.3
2018-Dec-05 07:00N 32°26' W 117°43'4 8.3
2018-Dec-05 06:30N 32°29' W 117°45'4 8.3
2018-Dec-05 06:00N 32°33' W 117°47'4 8.4
2018-Dec-05 05:30N 32°37' W 117°50'4 8.5
2018-Dec-05 05:00N 32°41' W 117°52'4 8.6
2018-Dec-05 04:30N 32°44' W 117°54'5 9.5
2018-Dec-05 04:00N 32°49' W 117°57'5 9.4
2018-Dec-05 03:30N 32°53' W 117°59'510.7
2018-Dec-05 03:00N 32°58' W 118°02'12759.2
2018-Dec-05 03:00N 32°48' W 117°54'1735.9 060 / 111019.2 17.015.415.0
2018-Dec-05 02:30N 33°03' W 118°05'510.9
2018-Dec-05 02:00N 33°08' W 118°08'510.9
2018-Dec-05 01:30N 33°12' W 118°11'611.2
2018-Dec-05 01:00N 33°17' W 118°14'510.6
2018-Dec-05 00:30N 33°21' W 118°19'0 0.4
2018-Dec-04 23:59N 33°21' W 118°19'0 0.1
2018-Dec-04 23:29N 33°21' W 118°19'0 0.1
2018-Dec-04 22:59N 33°21' W 118°19'0 0.0
2018-Dec-04 22:29N 33°21' W 118°19'0 0.0
2018-Dec-04 21:56N 33°21' W 118°19'0 0.0
2018-Dec-04 21:29N 33°21' W 118°19'0 0.0
2018-Dec-04 20:53N 33°21' W 118°19'0 0.0
2018-Dec-04 20:29N 33°21' W 118°19'0 0.0
2018-Dec-04 19:59N 33°21' W 118°19'0 0.0
2018-Dec-04 19:29N 33°21' W 118°19'0 0.0
2018-Dec-04 18:59N 33°21' W 118°19'0 0.0
2018-Dec-04 18:29N 33°21' W 118°19'0 0.0
2018-Dec-04 17:59N 33°21' W 118°19'0 0.0
2018-Dec-04 17:29N 33°21' W 118°19'0 0.0
2018-Dec-04 16:56N 33°21' W 118°19'0 0.0
2018-Dec-04 16:26N 33°21' W 118°19'0 0.0
2018-Dec-04 15:56N 33°21' W 118°19'0 0.0
2018-Dec-04 15:20N 33°21' W 118°19'0 0.2
2018-Dec-04 15:00N 33°21' W 118°19'3 6.8
2018-Dec-04 14:30N 33°18' W 118°16'4 8.2
2018-Dec-04 14:00N 33°14' W 118°15'4 8.7
2018-Dec-04 13:30N 33°10' W 118°14'4 8.5
2018-Dec-04 13:00N 33°06' W 118°13'152.3
2018-Dec-04 13:00N 33°06' W 118°12'4 7.6 120 / 121020.210.8 18.016.416.0
2018-Dec-04 12:30N 33°03' W 118°10'4 8.3
2018-Dec-04 12:00N 32°60' W 118°07'4 8.4
2018-Dec-04 11:31N 32°56' W 118°04'4 8.8
2018-Dec-04 11:00N 32°52' W 118°02'4 8.5
2018-Dec-04 10:30N 32°48' W 118°00'4 8.2
2018-Dec-04 10:00N 32°45' W 117°57'4 7.0
2018-Dec-04 09:30N 32°47' W 117°54'4 7.8
2018-Dec-04 09:00N 32°51' W 117°54'4 7.9
2018-Dec-04 08:30N 32°55' W 117°55'4 8.0
2018-Dec-04 08:00N 32°59' W 117°57'4 7.7
2018-Dec-04 07:30N 33°02' W 117°58'4 7.7
2018-Dec-04 07:00N 33°06' W 117°60'4 8.4
2018-Dec-04 06:30N 33°10' W 118°02'5 9.1
2018-Dec-04 06:00N 33°14' W 118°04'5 9.1
2018-Dec-04 05:30N 33°18' W 118°06'5 9.3
2018-Dec-04 05:01N 33°23' W 118°08'5 9.4
2018-Dec-04 04:30N 33°27' W 118°10'5 9.7
2018-Dec-04 04:00N 33°32' W 118°12'510.0
2018-Dec-04 03:30N 33°36' W 118°13'510.5
2018-Dec-04 03:00N 33°41' W 118°12'4 7.1
2018-Dec-04 02:30N 33°45' W 118°11'0 0.1
2018-Dec-04 01:55N 33°45' W 118°11'0 0.0
2018-Dec-04 01:28N 33°45' W 118°11'0 0.0
2018-Dec-04 00:58N 33°45' W 118°11'0 0.0
2018-Dec-04 00:28N 33°45' W 118°11'0 0.0
2018-Dec-03 23:58N 33°45' W 118°11'0 0.0
2018-Dec-03 23:28N 33°45' W 118°11'0 0.0
2018-Dec-03 22:58N 33°45' W 118°11'0 0.0
2018-Dec-03 22:25N 33°45' W 118°11'0 0.0
2018-Dec-03 21:58N 33°45' W 118°11'0 0.0
2018-Dec-03 21:28N 33°45' W 118°11'0 0.0
2018-Dec-03 20:58N 33°45' W 118°11'0 0.0
2018-Dec-03 20:28N 33°45' W 118°11'0 0.0
2018-Dec-03 19:58N 33°45' W 118°11'0 0.0
2018-Dec-03 19:28N 33°45' W 118°11'0 0.0
2018-Dec-03 18:58N 33°45' W 118°11'0 0.0
2018-Dec-03 18:28N 33°45' W 118°11'0 0.0
2018-Dec-03 17:58N 33°45' W 118°11'0 0.0
2018-Dec-03 17:28N 33°45' W 118°11'0 0.0
2018-Dec-03 16:58N 33°45' W 118°11'0 0.0
2018-Dec-03 16:28N 33°45' W 118°11'0 0.0
2018-Dec-03 15:58N 33°45' W 118°11'0 0.0
2018-Dec-03 15:28N 33°45' W 118°11'0 0.0
2018-Dec-03 14:58N 33°45' W 118°11'0 0.0
2018-Dec-03 14:28N 33°45' W 118°11'0 0.0
2018-Dec-03 13:58N 33°45' W 118°11'0 0.0
2018-Dec-03 13:31N 33°45' W 118°11'0 0.9
2018-Dec-03 13:00N 33°45' W 118°11'5 9.1
2018-Dec-03 12:31N 33°40' W 118°11'  
Track history (hours):
 
Tides and Currents Weather Stations Pressure Air Temp Water Temp Dewpoint Dewpoint Depression Visibility Wind Speed Wind Dir Waves Ship Positions

Inspiration

Operator: Carnival Cruise Lines

Last reported at 2018-Dec-13 12:29 UTC. Time now 2018-Dec-13 12:49 UTC.
Position N 31°26' W 117°47'.

Type: Ship. MMSI: 309484000.

Date/timePositionNaut miles runAvg speedWind from/ knotsBaromVisibWave heightAir tempDewpointWater temp
2018-Dec-13 12:29N 31°26' W 117°47'4 7.6
2018-Dec-13 12:00N 31°29' W 117°47'4 8.4
2018-Dec-13 11:30N 31°33' W 117°50'4 8.4
2018-Dec-13 11:00N 31°36' W 117°53'4 8.0
2018-Dec-13 10:30N 31°40' W 117°55'4 7.7
2018-Dec-13 10:00N 31°44' W 117°56'4 8.0
2018-Dec-13 09:31N 31°45' W 117°51'4 8.4
2018-Dec-13 09:01N 31°45' W 117°46'4 8.3
2018-Dec-13 08:30N 31°46' W 117°42'4 8.6
2018-Dec-13 08:01N 31°46' W 117°36'5 9.2
2018-Dec-13 07:30N 31°47' W 117°31'5 9.0
2018-Dec-13 07:00N 31°47' W 117°26'5 9.2
2018-Dec-13 06:30N 31°48' W 117°20'6 9.1
2018-Dec-13 05:48N 31°48' W 117°13'3 9.2
2018-Dec-13 05:28N 31°49' W 117°09'4 9.5
2018-Dec-13 05:00N 31°49' W 117°04'5 9.4
2018-Dec-13 04:30N 31°49' W 116°59'21 1.2
2018-Dec-12 10:53N 32°03' W 117°17'4 9.0
2018-Dec-12 10:26N 32°05' W 117°21'4 8.9
2018-Dec-12 10:00N 32°07' W 117°26'6 9.4
2018-Dec-12 09:23N 32°09' W 117°32'3 8.9
2018-Dec-12 09:00N 32°11' W 117°34'5 9.3
2018-Dec-12 08:30N 32°16' W 117°37'5 9.3
2018-Dec-12 08:00N 32°20' W 117°39'5 9.6
2018-Dec-12 07:30N 32°24' W 117°42'5 9.9
2018-Dec-12 07:00N 32°28' W 117°44'510.0
2018-Dec-12 06:30N 32°33' W 117°47'5 9.6
2018-Dec-12 06:00N 32°37' W 117°50'5 9.4
2018-Dec-12 05:30N 32°41' W 117°52'5 9.6
2018-Dec-12 05:01N 32°45' W 117°55'4209.6
2018-Dec-12 05:00N 32°42' W 117°54'817.0 330 / 51021.210.8 15.013.317.0
2018-Dec-12 04:30N 32°50' W 117°57'5 9.7
2018-Dec-12 04:00N 32°54' W 118°00'5 9.6
2018-Dec-12 03:30N 32°58' W 118°03'510.4
2018-Dec-12 03:00N 33°03' W 118°05'510.4
2018-Dec-12 02:30N 33°08' W 118°08'510.2
2018-Dec-12 02:00N 33°12' W 118°11'510.7
2018-Dec-12 01:30N 33°17' W 118°13'510.8
2018-Dec-12 01:00N 33°21' W 118°18'1 1.1
2018-Dec-12 00:28N 33°21' W 118°19'0 0.0
2018-Dec-11 23:52N 33°21' W 118°19'0 0.0
2018-Dec-11 23:28N 33°21' W 118°19'0 0.0
2018-Dec-11 22:58N 33°21' W 118°19'0 0.0
2018-Dec-11 22:25N 33°21' W 118°19'0 0.1
2018-Dec-11 21:58N 33°21' W 118°19'0 0.0
2018-Dec-11 21:25N 33°21' W 118°19'0 0.0
2018-Dec-11 20:58N 33°21' W 118°19'0 0.0
2018-Dec-11 20:28N 33°21' W 118°19'0 0.0
2018-Dec-11 19:58N 33°21' W 118°19'0 0.0
2018-Dec-11 19:25N 33°21' W 118°19'0 0.0
2018-Dec-11 18:58N 33°21' W 118°19'0 0.0
2018-Dec-11 18:28N 33°21' W 118°19'0 0.1
2018-Dec-11 17:58N 33°21' W 118°19'0 0.0
2018-Dec-11 17:28N 33°21' W 118°19'0 0.1
2018-Dec-11 16:58N 33°21' W 118°19'0 0.1
2018-Dec-11 16:28N 33°21' W 118°19'0 0.1
2018-Dec-11 16:00N 33°21' W 118°19'0 0.0
2018-Dec-11 15:30N 33°21' W 118°19'0 0.2
2018-Dec-11 15:00N 33°21' W 118°19'3 5.9
2018-Dec-11 14:31N 33°19' W 118°17'4 8.5
2018-Dec-11 14:00N 33°15' W 118°15'4 7.9
2018-Dec-11 13:30N 33°11' W 118°14'4 8.2
2018-Dec-11 13:01N 33°07' W 118°13'4 8.3
2018-Dec-11 12:31N 33°03' W 118°11'4 8.5
2018-Dec-11 12:01N 33°00' W 118°07'4 8.2
2018-Dec-11 11:30N 32°57' W 118°04'4 8.3
2018-Dec-11 11:00N 32°53' W 118°03'4 8.5
2018-Dec-11 10:30N 32°49' W 118°01'4 8.2
2018-Dec-11 10:00N 32°45' W 117°59'4 7.3
2018-Dec-11 09:30N 32°45' W 117°55'4 7.6
2018-Dec-11 09:00N 32°49' W 117°54'4 7.5
2018-Dec-11 08:30N 32°53' W 117°54'4 7.4
2018-Dec-11 08:00N 32°56' W 117°56'4 7.3
2018-Dec-11 07:30N 32°60' W 117°57'4 7.3
2018-Dec-11 07:00N 33°03' W 117°59'4 7.5
2018-Dec-11 06:30N 33°07' W 118°00'4 8.8
2018-Dec-11 06:00N 33°11' W 118°02'510.7
2018-Dec-11 05:30N 33°16' W 118°05'611.0
2018-Dec-11 05:00N 33°21' W 118°06'611.0
2018-Dec-11 04:30N 33°26' W 118°09'511.0
2018-Dec-11 04:00N 33°31' W 118°11'510.8
2018-Dec-11 03:30N 33°37' W 118°13'510.8
2018-Dec-11 03:00N 33°42' W 118°11'3 6.5
2018-Dec-11 02:30N 33°45' W 118°11'0 0.0
2018-Dec-11 01:59N 33°45' W 118°11'0 0.0
2018-Dec-11 01:26N 33°45' W 118°11'0 0.0
2018-Dec-11 00:59N 33°45' W 118°11'0 0.0
2018-Dec-11 00:29N 33°45' W 118°11'0 0.0
2018-Dec-10 23:59N 33°45' W 118°11'0 0.0
2018-Dec-10 23:29N 33°45' W 118°11'0 0.0
2018-Dec-10 22:59N 33°45' W 118°11'0 0.0
2018-Dec-10 22:26N 33°45' W 118°11'0 0.0
2018-Dec-10 21:59N 33°45' W 118°11'0 0.0
2018-Dec-10 21:26N 33°45' W 118°11'0 0.0
2018-Dec-10 20:59N 33°45' W 118°11'0 0.0
2018-Dec-10 20:29N 33°45' W 118°11'0 0.0
2018-Dec-10 19:59N 33°45' W 118°11'0 0.0
2018-Dec-10 19:29N 33°45' W 118°11'0 0.0
2018-Dec-10 18:59N 33°45' W 118°11'0 0.0
2018-Dec-10 18:29N 33°45' W 118°11'0 0.0
2018-Dec-10 17:59N 33°45' W 118°11'0 0.0
2018-Dec-10 17:29N 33°45' W 118°11'0 0.0
2018-Dec-10 16:59N 33°45' W 118°11'0 0.0
2018-Dec-10 16:29N 33°45' W 118°11'0 0.0
2018-Dec-10 15:56N 33°45' W 118°11'0 0.0
2018-Dec-10 15:29N 33°45' W 118°11'0 0.0
2018-Dec-10 14:59N 33°45' W 118°11'0 0.0
2018-Dec-10 14:29N 33°45' W 118°11'0 0.0
2018-Dec-10 13:59N 33°45' W 118°11'0 0.3
2018-Dec-10 13:30N 33°45' W 118°11'1 1.7
2018-Dec-10 13:00N 33°44' W 118°11'4 8.4
2018-Dec-10 12:30N 33°40' W 118°11'5 9.1
2018-Dec-10 12:00N 33°36' W 118°10'5 9.3
2018-Dec-10 11:30N 33°31' W 118°08'5 9.3
2018-Dec-10 11:01N 33°27' W 118°06'510.1
2018-Dec-10 10:30N 33°22' W 118°04'816.3
2018-Dec-10 10:01N 33°14' W 118°00'816.1
2018-Dec-10 09:30N 33°07' W 117°57'816.1
2018-Dec-10 09:00N 32°59' W 117°54'815.9
2018-Dec-10 08:30N 32°52' W 117°50'815.8
2018-Dec-10 08:00N 32°44' W 117°48'816.1
2018-Dec-10 07:30N 32°37' W 117°44'816.1
2018-Dec-10 07:00N 32°29' W 117°40'816.1
2018-Dec-10 06:31N 32°22' W 117°36'815.9
2018-Dec-10 06:00N 32°15' W 117°31'815.7
2018-Dec-10 05:31N 32°10' W 117°25'915.9
2018-Dec-10 04:58N 32°05' W 117°17'715.7
2018-Dec-10 04:30N 32°01' W 117°09'19 1.1
2018-Dec-09 11:11N 31°42' W 117°11'1 7.9
2018-Dec-09 11:00N 31°41' W 117°11'9 3.6
2018-Dec-09 08:26N 31°33' W 117°17'3 7.2
2018-Dec-09 08:00N 31°36' W 117°19'7 7.4
2018-Dec-09 07:03N 31°43' W 117°21'2 7.6
2018-Dec-09 06:51N 31°44' W 117°22'3 7.6
2018-Dec-09 06:30N 31°47' W 117°23'4 7.4
2018-Dec-09 06:00N 31°50' W 117°24'3 7.0
2018-Dec-09 05:30N 31°53' W 117°22'4 7.6
2018-Dec-09 05:00N 31°53' W 117°17'4 7.2
2018-Dec-09 04:30N 31°51' W 117°14'4 7.7
2018-Dec-09 04:00N 31°47' W 117°13'6 7.6
2018-Dec-09 03:11N 31°41' W 117°11'1 7.5
2018-Dec-09 03:00N 31°40' W 117°10'5429.7
2018-Dec-09 03:00N 31°36' W 117°06'4 3.7 350 / 121022.210.8 17.013.715.0
2018-Dec-09 01:52N 31°32' W 117°07'2 6.1
2018-Dec-09 01:29N 31°32' W 117°10'4 7.6
2018-Dec-09 01:00N 31°35' W 117°12'6 7.7
2018-Dec-09 00:12N 31°41' W 117°14'15 7.0
2018-Dec-08 22:05N 31°40' W 117°31'1 8.8
2018-Dec-08 21:59N 31°40' W 117°32'4 8.8
2018-Dec-08 21:30N 31°39' W 117°37'4 7.9
2018-Dec-08 21:00N 31°38' W 117°41'6 7.7
2018-Dec-08 20:17N 31°36' W 117°47'2 7.5
2018-Dec-08 20:00N 31°36' W 117°50'4 7.4
2018-Dec-08 19:30N 31°35' W 117°54'4 7.8
2018-Dec-08 19:00N 31°35' W 117°58'4 7.3
2018-Dec-08 18:30N 31°37' W 118°02'4 7.9
2018-Dec-08 18:00N 31°40' W 118°03'4 8.1
2018-Dec-08 17:30N 31°44' W 118°04'4 7.9
2018-Dec-08 17:00N 31°48' W 118°05'4 8.0
2018-Dec-08 16:30N 31°52' W 118°06'4 7.6
2018-Dec-08 16:00N 31°56' W 118°06'5356.3
2018-Dec-08 16:00N 31°54' W 118°00'713.9 350 / 61025.210.8 17.015.415.0
2018-Dec-08 15:30N 31°60' W 118°04'4 7.8
2018-Dec-08 15:00N 32°03' W 118°03'4239.5
2018-Dec-08 15:00N 32°06' W 118°00'1 2.6 340 / 81026.310.8 17.015.416.0
2018-Dec-08 14:30N 32°07' W 118°01'4 7.7
2018-Dec-08 14:00N 32°10' W 117°59'4 7.7
2018-Dec-08 13:30N 32°14' W 117°58'4 7.7
2018-Dec-08 13:00N 32°18' W 117°56'4 7.6
2018-Dec-08 12:30N 32°21' W 117°55'4 8.0
2018-Dec-08 12:00N 32°25' W 117°53'4 8.2
2018-Dec-08 11:30N 32°29' W 117°51'4 8.3
2018-Dec-08 11:00N 32°32' W 117°49'4 8.5
2018-Dec-08 10:30N 32°36' W 117°48'4 8.2
2018-Dec-08 10:00N 32°40' W 117°49'4 8.2
2018-Dec-08 09:30N 32°44' W 117°50'4 8.3
2018-Dec-08 09:00N 32°48' W 117°52'4 8.3
2018-Dec-08 08:30N 32°52' W 117°54'4 8.3
2018-Dec-08 08:00N 32°56' W 117°56'4 8.1
2018-Dec-08 07:30N 32°59' W 117°58'4 8.1
2018-Dec-08 07:00N 33°03' W 118°00'4 8.5
2018-Dec-08 06:30N 33°07' W 118°02'510.1
2018-Dec-08 06:00N 33°12' W 118°03'510.4
2018-Dec-08 05:30N 33°17' W 118°05'510.8
2018-Dec-08 05:00N 33°22' W 118°07'510.8
2018-Dec-08 04:30N 33°27' W 118°09'510.8
2018-Dec-08 04:00N 33°32' W 118°12'510.4
2018-Dec-08 03:30N 33°37' W 118°13'510.4
2018-Dec-08 03:00N 33°42' W 118°11'3 5.7
2018-Dec-08 02:30N 33°45' W 118°11'0 0.0
2018-Dec-08 01:59N 33°45' W 118°11'0 0.0
2018-Dec-08 01:29N 33°45' W 118°11'0 0.0
2018-Dec-08 00:59N 33°45' W 118°11'0 0.0
2018-Dec-08 00:29N 33°45' W 118°11'0 0.0
2018-Dec-07 23:59N 33°45' W 118°11'0 0.0
2018-Dec-07 23:29N 33°45' W 118°11'0 0.0
2018-Dec-07 22:59N 33°45' W 118°11'0 0.0
2018-Dec-07 22:23N 33°45' W 118°11'0 0.0
2018-Dec-07 21:59N 33°45' W 118°11'0 0.0
2018-Dec-07 21:29N 33°45' W 118°11'0 0.0
2018-Dec-07 20:59N 33°45' W 118°11'0 0.0
2018-Dec-07 20:29N 33°45' W 118°11'0 0.0
2018-Dec-07 19:59N 33°45' W 118°11'0 0.0
2018-Dec-07 19:26N 33°45' W 118°11'0 0.0
2018-Dec-07 18:59N 33°45' W 118°11'0 0.0
2018-Dec-07 18:29N 33°45' W 118°11'0 0.0
2018-Dec-07 17:59N 33°45' W 118°11'0 0.0
2018-Dec-07 17:23N 33°45' W 118°11'0 0.0
2018-Dec-07 16:59N 33°45' W 118°11'0 0.0
2018-Dec-07 16:29N 33°45' W 118°11'0 0.0
2018-Dec-07 15:56N 33°45' W 118°11'0 0.0
2018-Dec-07 15:29N 33°45' W 118°11'0 0.0
2018-Dec-07 14:59N 33°45' W 118°11'0 0.0
2018-Dec-07 14:29N 33°45' W 118°11'0 0.0
2018-Dec-07 13:59N 33°45' W 118°11'0 0.1
2018-Dec-07 13:31N 33°45' W 118°11'1 1.9
2018-Dec-07 13:01N 33°44' W 118°11'510.0
2018-Dec-07 12:30N 33°39' W 118°11'4 7.6
2018-Dec-07 12:01N 33°35' W 118°10'4 7.7
2018-Dec-07 11:31N 33°32' W 118°08'4 7.6
2018-Dec-07 11:00N 33°28' W 118°06'4 7.2
2018-Dec-07 10:31N 33°25' W 118°05'4 7.2
2018-Dec-07 10:00N 33°21' W 118°03'4 7.3
2018-Dec-07 09:31N 33°18' W 118°02'3 6.6
2018-Dec-07 09:00N 33°15' W 118°01'4 7.9
2018-Dec-07 08:30N 33°11' W 117°59'4 8.2
2018-Dec-07 08:00N 33°07' W 117°57'4 8.4
2018-Dec-07 07:30N 33°03' W 117°56'4 8.2
2018-Dec-07 07:00N 32°60' W 117°54'4 8.0
2018-Dec-07 06:30N 32°56' W 117°52'4 7.7
2018-Dec-07 06:00N 32°52' W 117°50'4 7.7
2018-Dec-07 05:30N 32°49' W 117°48'4 7.9
2018-Dec-07 05:00N 32°45' W 117°46'4 8.2
2018-Dec-07 04:30N 32°42' W 117°44'4 8.6
2018-Dec-07 04:01N 32°38' W 117°41'4 7.8
2018-Dec-07 03:30N 32°34' W 117°42'8 8.0
2018-Dec-07 02:30N 32°26' W 117°40'4 8.1
2018-Dec-07 02:00N 32°22' W 117°39'5541.6
2018-Dec-07 02:00N 32°18' W 117°36'1 2.2 190 / 111013.210.8 16.016.018.0
2018-Dec-07 01:30N 32°19' W 117°37'4 8.3
2018-Dec-07 01:00N 32°15' W 117°34'4 8.4
2018-Dec-07 00:30N 32°12' W 117°31'4 7.6
2018-Dec-07 00:00N 32°09' W 117°28'4 7.0
2018-Dec-06 23:30N 32°07' W 117°25'50 5.2
2018-Dec-06 14:00N 31°24' W 117°54'1211.9 210 / 101013.2 5.4 16.014.418.0
2018-Dec-06 13:00N 31°18' W 117°42'59 5.9 190 / 201013.210.8 18.016.418.0
2018-Dec-06 03:00N 31°48' W 116°42'5 0.4 120 / 101019.3 2.2 17.015.416.0
2018-Dec-05 14:00N 31°48' W 116°48'22 9.3 090 / 121018.3 16.014.415.0
2018-Dec-05 11:36N 32°01' W 117°10'1 9.2
2018-Dec-05 11:30N 32°01' W 117°10'4 8.9
2018-Dec-05 11:00N 32°03' W 117°15'6 9.1
2018-Dec-05 10:22N 32°05' W 117°22'3 8.9
2018-Dec-05 09:58N 32°06' W 117°25'5 8.8
2018-Dec-05 09:25N 32°08' W 117°31'3 8.3
2018-Dec-05 09:00N 32°11' W 117°34'4 8.7
2018-Dec-05 08:30N 32°14' W 117°36'4 8.6
2018-Dec-05 08:00N 32°18' W 117°38'4 8.4
2018-Dec-05 07:30N 32°22' W 117°41'4 8.3
2018-Dec-05 07:00N 32°26' W 117°43'4 8.3
2018-Dec-05 06:30N 32°29' W 117°45'4 8.3
2018-Dec-05 06:00N 32°33' W 117°47'4 8.4
2018-Dec-05 05:30N 32°37' W 117°50'4 8.5
2018-Dec-05 05:00N 32°41' W 117°52'4 8.6
2018-Dec-05 04:30N 32°44' W 117°54'5 9.5
2018-Dec-05 04:00N 32°49' W 117°57'5 9.4
2018-Dec-05 03:30N 32°53' W 117°59'510.7
2018-Dec-05 03:00N 32°58' W 118°02'12759.2
2018-Dec-05 03:00N 32°48' W 117°54'1735.9 060 / 111019.2 17.015.415.0
2018-Dec-05 02:30N 33°03' W 118°05'510.9
2018-Dec-05 02:00N 33°08' W 118°08'510.9
2018-Dec-05 01:30N 33°12' W 118°11'611.2
2018-Dec-05 01:00N 33°17' W 118°14'510.6
2018-Dec-05 00:30N 33°21' W 118°19'0 0.4
2018-Dec-04 23:59N 33°21' W 118°19'0 0.1
2018-Dec-04 23:29N 33°21' W 118°19'0 0.1
2018-Dec-04 22:59N 33°21' W 118°19'0 0.0
2018-Dec-04 22:29N 33°21' W 118°19'0 0.0
2018-Dec-04 21:56N 33°21' W 118°19'0 0.0
2018-Dec-04 21:29N 33°21' W 118°19'0 0.0
2018-Dec-04 20:53N 33°21' W 118°19'0 0.0
2018-Dec-04 20:29N 33°21' W 118°19'0 0.0
2018-Dec-04 19:59N 33°21' W 118°19'0 0.0
2018-Dec-04 19:29N 33°21' W 118°19'0 0.0
2018-Dec-04 18:59N 33°21' W 118°19'0 0.0
2018-Dec-04 18:29N 33°21' W 118°19'0 0.0
2018-Dec-04 17:59N 33°21' W 118°19'0 0.0
2018-Dec-04 17:29N 33°21' W 118°19'0 0.0
2018-Dec-04 16:56N 33°21' W 118°19'0 0.0
2018-Dec-04 16:26N 33°21' W 118°19'0 0.0
2018-Dec-04 15:56N 33°21' W 118°19'0 0.0
2018-Dec-04 15:20N 33°21' W 118°19'0 0.2
2018-Dec-04 15:00N 33°21' W 118°19'3 6.8
2018-Dec-04 14:30N 33°18' W 118°16'4 8.2
2018-Dec-04 14:00N 33°14' W 118°15'4 8.7
2018-Dec-04 13:30N 33°10' W 118°14'4 8.5
2018-Dec-04 13:00N 33°06' W 118°13'152.3
2018-Dec-04 13:00N 33°06' W 118°12'4 7.6 120 / 121020.210.8 18.016.416.0
2018-Dec-04 12:30N 33°03' W 118°10'4 8.3
2018-Dec-04 12:00N 32°60' W 118°07'4 8.4
2018-Dec-04 11:31N 32°56' W 118°04'4 8.8
2018-Dec-04 11:00N 32°52' W 118°02'4 8.5
2018-Dec-04 10:30N 32°48' W 118°00'4 8.2
2018-Dec-04 10:00N 32°45' W 117°57'4 7.0
2018-Dec-04 09:30N 32°47' W 117°54'4 7.8
2018-Dec-04 09:00N 32°51' W 117°54'4 7.9
2018-Dec-04 08:30N 32°55' W 117°55'4 8.0
2018-Dec-04 08:00N 32°59' W 117°57'4 7.7
2018-Dec-04 07:30N 33°02' W 117°58'4 7.7
2018-Dec-04 07:00N 33°06' W 117°60'4 8.4
2018-Dec-04 06:30N 33°10' W 118°02'5 9.1
2018-Dec-04 06:00N 33°14' W 118°04'5 9.1
2018-Dec-04 05:30N 33°18' W 118°06'5 9.3
2018-Dec-04 05:01N 33°23' W 118°08'5 9.4
2018-Dec-04 04:30N 33°27' W 118°10'5 9.7
2018-Dec-04 04:00N 33°32' W 118°12'510.0
2018-Dec-04 03:30N 33°36' W 118°13'510.5
2018-Dec-04 03:00N 33°41' W 118°12'4 7.1
2018-Dec-04 02:30N 33°45' W 118°11'0 0.1
2018-Dec-04 01:55N 33°45' W 118°11'0 0.0
2018-Dec-04 01:28N 33°45' W 118°11'0 0.0
2018-Dec-04 00:58N 33°45' W 118°11'0 0.0
2018-Dec-04 00:28N 33°45' W 118°11'0 0.0
2018-Dec-03 23:58N 33°45' W 118°11'0 0.0
2018-Dec-03 23:28N 33°45' W 118°11'0 0.0
2018-Dec-03 22:58N 33°45' W 118°11'0 0.0
2018-Dec-03 22:25N 33°45' W 118°11'0 0.0
2018-Dec-03 21:58N 33°45' W 118°11'0 0.0
2018-Dec-03 21:28N 33°45' W 118°11'0 0.0
2018-Dec-03 20:58N 33°45' W 118°11'0 0.0
2018-Dec-03 20:28N 33°45' W 118°11'0 0.0
2018-Dec-03 19:58N 33°45' W 118°11'0 0.0
2018-Dec-03 19:28N 33°45' W 118°11'0 0.0
2018-Dec-03 18:58N 33°45' W 118°11'0 0.0
2018-Dec-03 18:28N 33°45' W 118°11'0 0.0
2018-Dec-03 17:58N 33°45' W 118°11'0 0.0
2018-Dec-03 17:28N 33°45' W 118°11'0 0.0
2018-Dec-03 16:58N 33°45' W 118°11'0 0.0
2018-Dec-03 16:28N 33°45' W 118°11'0 0.0
2018-Dec-03 15:58N 33°45' W 118°11'0 0.0
2018-Dec-03 15:28N 33°45' W 118°11'0 0.0
2018-Dec-03 14:58N 33°45' W 118°11'0 0.0
2018-Dec-03 14:28N 33°45' W 118°11'0 0.0
2018-Dec-03 13:58N 33°45' W 118°11'0 0.0
2018-Dec-03 13:31N 33°45' W 118°11'0 0.9
2018-Dec-03 13:00N 33°45' W 118°11'5 9.1
2018-Dec-03 12:31N 33°40' W 118°11'  

Dump ship's entire track history